CYCD

Nanaimo Airport

Nanaimo, , Canada
METAR CYCD 172324Z 12013G18KT 4SM -RA BR SCT007 BKN028 OVC050 09/09 A2962 RMK SF4SC2SC2 SLP032
Observed Flight Rules
Jan-17 @ 23:24 UTC (39 minutes ago) Marginal Visual Flight Rules
Wind Visibility Clouds Conditions
120° at 13 knots
 Gusting to 18 knots
4 miles
  • Scattered at 700' AGL
  • Broken at 2,800' AGL
  • Overcast at 5,000' AGL
  • Light Rain
  • Mist
Temperatures Readings
Current 9°C / 48°F
Dewpoint 9°C / 48°F
Humidity 100%
Altimeter 29.62" Hg
Pressure 1003.2 hPa
Elevation 30
METAR CYCD 172324Z 12013G18KT 4SM -RA BR SCT007 BKN028 OVC050 09/09 A2962 RMK SF4SC2SC2 SLP032
Observed Flight Rules
Jan-17 @ 23:24 UTC
(39 minutes ago)
MVFR
Wind Visibility
120° at 13 knots
 Gusting to 18 knots
4 miles
Clouds
  • Scattered at 700' AGL
  • Broken at 2,800' AGL
  • Overcast at 5,000' AGL
Conditions
  • Light Rain
  • Mist
Temperature Dewpoint
9°C / 48°F 9°C / 48°F
Humidity Altimeter Pressure
100% 29.62" Hg 1003.2 hPa